Time;durP1;ratioP1;P1;durP2;ratioP2;P2;SDS_P1;SDS_P2;PMS_P1;PMS_P2;Temp;Humidity;BMP_temperature;BMP_pressure;BME280_temperature;BME280_humidity;BME280_pressure;Samples;Min_cycle;Max_cycle;Signal;HPM_P1;HPM_P2
2021/07/10 00:02:03;;;;;;;7.32;6.28;;;;;;;22.20;53.35;102043.97;5014089;28;20037;-69
2021/07/10 00:04:29;;;;;;;7.85;6.53;;;;;;;22.21;53.36;102044.84;4980159;28;20455;-70
2021/07/10 00:06:56;;;;;;;7.00;5.90;;;;;;;22.20;53.29;102043.13;4996595;28;20488;-70
2021/07/10 00:09:22;;;;;;;8.77;7.35;;;;;;;22.22;53.25;102042.22;4964649;28;20109;-73
2021/07/10 00:11:47;;;;;;;8.00;6.95;;;;;;;22.19;53.17;102034.34;5014120;28;20111;-73
2021/07/10 00:14:13;;;;;;;8.82;6.68;;;;;;;22.21;53.30;102039.56;5013882;28;20033;-73
2021/07/10 00:16:39;;;;;;;7.90;6.65;;;;;;;22.21;53.29;102045.72;4996536;28;20030;-73
2021/07/10 00:19:04;;;;;;;7.28;6.10;;;;;;;22.22;53.29;102046.59;4992565;28;20401;-73
2021/07/10 00:21:30;;;;;;;7.78;6.55;;;;;;;22.20;53.24;102043.97;4992906;28;20049;-73
2021/07/10 00:23:55;;;;;;;7.75;6.72;;;;;;;22.17;53.60;102041.34;4993020;28;20030;-73
2021/07/10 00:26:20;;;;;;;8.13;6.85;;;;;;;22.19;53.29;102034.34;4992955;28;20030;-73
2021/07/10 00:28:46;;;;;;;8.43;6.65;;;;;;;22.21;53.33;102035.19;4994420;28;20034;-76
2021/07/10 00:31:11;;;;;;;7.07;6.38;;;;;;;22.22;53.40;102033.44;4994138;28;20030;-73
2021/07/10 00:33:37;;;;;;;6.32;5.70;;;;;;;22.22;53.32;102036.06;4993135;28;20034;-73
2021/07/10 00:36:02;;;;;;;9.98;6.97;;;;;;;22.21;53.29;102032.53;4993886;28;20125;-70
2021/07/10 00:38:28;;;;;;;7.75;6.95;;;;;;;22.18;53.23;102026.44;4994384;28;20034;-69
2021/07/10 00:40:53;;;;;;;7.70;6.53;;;;;;;22.22;53.34;102028.16;4992927;28;20463;-69
2021/07/10 00:43:19;;;;;;;5.78;4.45;;;;;;;22.21;53.49;102019.38;4992896;28;20041;-69
2021/07/10 00:45:44;;;;;;;7.30;6.45;;;;;;;22.20;53.56;102022.03;4992825;28;20117;-69
2021/07/10 00:48:09;;;;;;;12.23;6.63;;;;;;;22.21;53.45;102024.63;4960313;28;20037;-69
2021/07/10 00:50:35;;;;;;;7.95;6.95;;;;;;;22.18;53.31;102018.53;4992616;28;20117;-69
2021/07/10 00:53:00;;;;;;;11.55;6.90;;;;;;;22.21;53.28;102021.13;4992695;28;20057;-73
2021/07/10 00:55:27;;;;;;;7.73;6.43;;;;;;;22.21;53.37;102021.13;4994113;28;20033;-73
2021/07/10 00:57:54;;;;;;;6.50;5.80;;;;;;;22.21;53.45;102013.22;4993754;28;20046;-73
2021/07/10 01:00:22;;;;;;;7.72;5.63;;;;;;;22.19;53.35;102008.00;4993704;28;20026;-73
2021/07/10 01:02:49;;;;;;;7.28;6.57;;;;;;;22.20;53.42;102011.50;4992355;28;20081;-73
2021/07/10 01:05:21;;;;;;;6.68;5.75;;;;;;;22.20;53.60;102006.22;4993755;28;20018;-73
2021/07/10 01:07:46;;;;;;;8.63;7.10;;;;;;;22.20;53.49;101999.16;4992274;28;20026;-73
2021/07/10 01:10:13;;;;;;;10.13;7.22;;;;;;;22.19;53.53;101996.56;4992380;28;20528;-70
2021/07/10 01:12:41;;;;;;;7.70;6.15;;;;;;;22.19;53.47;101996.56;4993761;28;20026;-70
2021/07/10 01:15:08;;;;;;;10.73;6.65;;;;;;;22.19;53.38;102002.72;4993684;28;20036;-73
2021/07/10 01:17:34;;;;;;;7.68;6.13;;;;;;;22.20;53.45;102009.72;4996498;28;20046;-73
2021/07/10 01:20:03;;;;;;;8.80;6.97;;;;;;;22.20;53.40;102007.06;5013333;28;20542;-73
2021/07/10 01:22:28;;;;;;;7.75;6.93;;;;;;;22.19;53.35;102000.09;5013160;28;20085;-70
2021/07/10 01:24:54;;;;;;;8.63;6.57;;;;;;;22.17;53.46;101982.50;4995738;28;20022;-70
2021/07/10 01:27:20;;;;;;;9.57;7.25;;;;;;;22.17;53.38;101991.28;5013272;28;20029;-70
2021/07/10 01:29:47;;;;;;;7.32;6.28;;;;;;;22.17;53.36;101988.66;5013109;28;20026;-70
2021/07/10 01:32:16;;;;;;;9.07;6.20;;;;;;;22.18;53.44;102000.97;5013087;28;20026;-70
2021/07/10 01:34:45;;;;;;;7.85;7.13;;;;;;;22.18;53.50;101995.69;4995934;28;20476;-69
2021/07/10 01:37:12;;;;;;;8.55;7.22;;;;;;;22.17;53.30;101977.25;5013045;28;20034;-70
2021/07/10 01:39:37;;;;;;;9.15;7.55;;;;;;;22.17;53.36;101985.16;5013090;28;20030;-70
2021/07/10 01:42:03;;;;;;;10.95;7.82;;;;;;;22.17;53.41;101980.75;5013011;28;20033;-70
2021/07/10 01:44:29;;;;;;;9.73;7.97;;;;;;;22.18;53.16;101981.63;5014199;28;20049;-70
2021/07/10 01:46:54;;;;;;;7.07;6.13;;;;;;;22.15;53.44;101971.97;4998970;28;20026;-70
2021/07/10 01:49:20;;;;;;;8.63;6.80;;;;;;;22.17;53.44;101969.34;5016498;28;20026;-69
2021/07/10 01:51:45;;;;;;;7.88;6.00;;;;;;;22.18;53.31;101971.09;4998914;28;20030;-70
2021/07/10 01:54:11;;;;;;;8.18;6.63;;;;;;;22.18;53.35;101963.19;5016382;28;20038;-70
2021/07/10 01:56:36;;;;;;;9.40;6.55;;;;;;;22.18;53.41;101969.34;4982447;28;20030;-70
2021/07/10 01:59:02;;;;;;;10.45;7.32;;;;;;;22.18;53.41;101955.28;4982537;28;20064;-70
2021/07/10 02:01:27;;;;;;;9.40;8.10;;;;;;;22.16;53.53;101954.41;4998616;28;20064;-70
2021/07/10 02:03:52;;;;;;;8.82;7.65;;;;;;;22.15;53.57;101950.91;5016191;28;20434;-70
2021/07/10 02:06:18;;;;;;;9.50;8.13;;;;;;;22.17;53.45;101949.16;4998717;28;20026;-70
2021/07/10 02:08:44;;;;;;;9.52;7.88;;;;;;;22.15;53.47;101943.00;4998275;28;20034;-70
2021/07/10 02:11:10;;;;;;;9.20;7.13;;;;;;;22.15;53.36;101947.38;4982192;28;20038;-70
2021/07/10 02:13:36;;;;;;;7.95;6.82;;;;;;;22.10;53.60;101937.72;4998414;28;20465;-70
2021/07/10 02:16:02;;;;;;;11.35;7.95;;;;;;;22.18;53.45;101952.66;5015942;28;20038;-70
2021/07/10 02:18:28;;;;;;;11.05;8.25;;;;;;;22.17;53.46;101948.25;4994813;28;20054;-70
2021/07/10 02:20:53;;;;;;;9.93;7.13;;;;;;;22.16;53.52;101943.88;4996253;28;20035;-70
2021/07/10 02:23:19;;;;;;;9.57;7.93;;;;;;;22.16;53.48;101942.13;4978977;28;20022;-70
2021/07/10 02:25:44;;;;;;;8.88;6.25;;;;;;;22.17;53.54;101938.59;4994982;28;20468;-69
2021/07/10 02:28:09;;;;;;;6.97;6.28;;;;;;;22.14;53.54;101929.81;4994887;28;20041;-70
2021/07/10 02:30:35;;;;;;;7.93;7.03;;;;;;;22.15;53.47;101936.84;4994974;28;20109;-70
2021/07/10 02:33:02;;;;;;;8.77;7.35;;;;;;;22.17;53.56;101930.69;4996060;28;20046;-70
2021/07/10 02:35:29;;;;;;;9.63;6.72;;;;;;;22.14;53.37;101930.69;4996171;28;20354;-70
2021/07/10 02:37:55;;;;;;;11.43;7.45;;;;;;;22.15;53.64;101927.19;4978560;28;20480;-69
2021/07/10 02:40:22;;;;;;;8.60;7.70;;;;;;;22.17;53.55;101937.72;4978826;28;20030;-69
2021/07/10 02:42:49;;;;;;;8.63;7.13;;;;;;;22.15;53.42;101923.69;4995792;28;20034;-69
2021/07/10 02:45:18;;;;;;;8.95;7.43;;;;;;;22.16;53.49;101925.44;4995778;28;20089;-70
2021/07/10 02:47:44;;;;;;;7.82;6.97;;;;;;;22.15;53.47;101921.03;4994500;28;20065;-70
2021/07/10 02:50:16;;;;;;;8.80;6.93;;;;;;;22.15;53.30;101919.28;4995790;28;20062;-70
2021/07/10 02:52:41;;;;;;;9.88;8.13;;;;;;;22.15;53.28;101910.50;4995814;28;20469;-70
2021/07/10 02:55:07;;;;;;;8.63;7.13;;;;;;;22.09;53.48;101903.47;4995576;28;20928;-69
2021/07/10 02:57:33;;;;;;;8.10;7.25;;;;;;;22.14;53.44;101917.53;4993676;28;20388;-70
2021/07/10 02:59:59;;;;;;;9.07;7.10;;;;;;;22.13;53.55;101914.91;4995695;28;20113;-70
2021/07/10 03:02:24;;;;;;;8.50;7.45;;;;;;;22.13;53.55;101910.50;4978374;28;20043;-70
2021/07/10 03:04:50;;;;;;;9.65;8.38;;;;;;;22.13;53.52;101907.88;4994165;28;20073;-70
2021/07/10 03:07:15;;;;;;;8.38;6.63;;;;;;;22.13;53.40;101899.09;4995184;28;20030;-70
2021/07/10 03:09:40;;;;;;;9.60;6.90;;;;;;;22.12;53.42;101897.34;4995413;28;20130;-69
2021/07/10 03:12:06;;;;;;;9.55;7.38;;;;;;;22.09;53.38;101882.41;4993995;28;20061;-70
2021/07/10 03:14:32;;;;;;;8.95;7.45;;;;;;;22.11;53.47;101885.91;4978047;28;20038;-69
2021/07/10 03:16:58;;;;;;;8.82;7.80;;;;;;;22.13;53.36;101888.56;4995625;28;20042;-70
2021/07/10 03:19:24;;;;;;;10.18;8.07;;;;;;;22.13;53.46;101885.91;4993156;28;20058;-70
2021/07/10 03:21:50;;;;;;;9.48;7.47;;;;;;;22.10;53.59;101879.78;4976817;28;20034;-70
2021/07/10 03:24:15;;;;;;;8.93;7.72;;;;;;;22.10;53.43;101884.16;4994398;28;20033;-70
2021/07/10 03:26:41;;;;;;;8.27;7.47;;;;;;;22.13;53.50;101878.00;4960676;28;20022;-70
2021/07/10 03:29:06;;;;;;;15.27;9.23;;;;;;;22.13;53.40;101878.00;4994291;28;20037;-70
2021/07/10 03:31:32;;;;;;;9.50;6.85;;;;;;;22.13;53.59;101885.91;4994546;28;20081;-70
2021/07/10 03:33:57;;;;;;;;;;;;;;;22.13;53.52;101878.00;4994202;28;20039;-70
2021/07/10 03:36:25;;;;;;;9.18;7.75;;;;;;;22.09;53.42;101880.66;4994146;28;19929;-70
2021/07/10 03:38:52;;;;;;;9.13;7.85;;;;;;;22.12;53.44;101882.41;4992904;28;20034;-69
2021/07/10 03:41:17;;;;;;;11.70;7.50;;;;;;;22.12;53.59;101878.88;4976677;28;20030;-70
2021/07/10 03:43:43;;;;;;;9.13;8.18;;;;;;;22.12;53.53;101881.53;4992847;28;20208;-69
2021/07/10 03:46:09;;;;;;;9.00;7.78;;;;;;;22.09;53.54;101880.66;4993965;28;20026;-70
2021/07/10 03:48:35;;;;;;;9.50;7.53;;;;;;;22.12;53.44;101882.41;4992730;28;20041;-70
2021/07/10 03:51:01;;;;;;;8.65;7.82;;;;;;;22.09;53.65;101875.38;4992943;28;20089;-70
2021/07/10 03:53:26;;;;;;;9.70;8.43;;;;;;;22.12;53.48;101877.13;4992961;28;20085;-70
2021/07/10 03:55:52;;;;;;;8.00;7.20;;;;;;;22.12;53.55;101877.13;4995400;28;20085;-74
2021/07/10 03:58:18;;;;;;;9.07;7.88;;;;;;;22.12;53.50;101873.63;5003214;28;20030;-73
2021/07/10 04:00:43;;;;;;;8.95;7.40;;;;;;;22.13;53.45;101872.75;4999199;28;20072;-73
2021/07/10 04:03:09;;;;;;;10.48;8.20;;;;;;;22.12;53.42;101871.88;4994222;28;20058;-74
2021/07/10 04:05:34;;;;;;;9.65;7.43;;;;;;;22.14;53.52;101874.50;4994615;28;20059;-73
2021/07/10 04:08:00;;;;;;;9.07;7.82;;;;;;;22.13;53.39;101883.28;4994302;28;20034;-73
2021/07/10 04:10:26;;;;;;;10.13;8.50;;;;;;;22.14;53.52;101882.41;4993969;28;20392;-73
2021/07/10 04:12:51;;;;;;;10.13;8.10;;;;;;;22.10;53.48;101871.88;4993687;28;20113;-73
2021/07/10 04:15:18;;;;;;;8.73;7.82;;;;;;;22.14;53.46;101877.13;4992502;28;20022;-73
2021/07/10 04:17:44;;;;;;;9.50;7.47;;;;;;;22.14;53.60;101872.75;4953885;28;1148484;-72
2021/07/10 04:20:10;;;;;;;9.68;7.35;;;;;;;22.13;53.15;101872.75;4996589;28;20037;-73
2021/07/10 04:22:37;;;;;;;10.35;7.15;;;;;;;22.14;53.44;101870.09;4996321;28;20534;-73
2021/07/10 04:25:08;;;;;;;9.52;7.50;;;;;;;22.12;53.51;101871.88;4996210;28;20034;-73
2021/07/10 04:27:34;;;;;;;10.77;8.70;;;;;;;22.15;53.57;101868.34;4996071;28;20109;-73
2021/07/10 04:30:01;;;;;;;9.05;7.55;;;;;;;22.15;53.52;101871.88;5013683;28;20057;-73
2021/07/10 04:32:27;;;;;;;8.02;7.00;;;;;;;22.15;53.47;101873.63;4996579;28;20037;-73
2021/07/10 04:34:52;;;;;;;7.95;6.57;;;;;;;22.15;53.69;101871.88;4996381;28;20037;-74
2021/07/10 04:37:18;;;;;;;7.65;6.88;;;;;;;22.15;53.51;101869.22;5013579;28;20120;-73
2021/07/10 04:39:43;;;;;;;8.32;7.03;;;;;;;22.16;53.53;101867.47;4996290;28;20042;-73
2021/07/10 04:42:09;;;;;;;9.70;7.45;;;;;;;22.13;53.42;101871.00;5014054;28;20534;-73
2021/07/10 04:44:35;;;;;;;8.50;7.60;;;;;;;22.14;53.36;101870.09;4980289;28;20483;-73
2021/07/10 04:47:00;;;;;;;8.63;7.47;;;;;;;22.13;53.41;101863.09;5013772;28;20032;-73
2021/07/10 04:49:26;;;;;;;8.38;6.05;;;;;;;22.15;53.40;101870.97;5013783;28;20025;-73
2021/07/10 04:51:51;;;;;;;8.65;7.22;;;;;;;22.16;53.56;101870.09;4996133;28;20157;-73
2021/07/10 04:54:16;;;;;;;10.75;7.93;;;;;;;22.14;53.49;101872.75;5013664;28;20060;-73
2021/07/10 04:56:42;;;;;;;6.55;5.95;;;;;;;22.16;53.42;101875.38;4996808;28;20030;-74
2021/07/10 04:59:07;;;;;;;8.57;6.68;;;;;;;22.12;53.63;101861.31;4997087;28;20483;-73
2021/07/10 05:01:33;;;;;;;7.72;6.88;;;;;;;22.15;53.60;101868.34;5013447;28;20197;-73
2021/07/10 05:03:58;;;;;;;8.45;6.78;;;;;;;22.12;53.44;101866.59;5013343;28;20030;-73
2021/07/10 05:06:24;;;;;;;8.48;7.07;;;;;;;22.14;53.51;101862.19;4995794;28;20030;-73
2021/07/10 05:08:49;;;;;;;8.82;6.68;;;;;;;22.16;53.56;101864.84;4979371;28;20380;-73
2021/07/10 05:11:14;;;;;;;9.82;7.68;;;;;;;22.17;53.59;101863.97;5013263;28;20112;-73
2021/07/10 05:13:40;;;;;;;7.57;6.35;;;;;;;22.13;53.60;101857.81;5013355;28;20034;-73
2021/07/10 05:16:05;;;;;;;7.20;6.32;;;;;;;22.16;53.56;101854.28;4995894;28;20041;-73
2021/07/10 05:18:30;;;;;;;8.38;7.50;;;;;;;22.12;53.47;101847.28;5013263;28;20473;-73
2021/07/10 05:20:56;;;;;;;7.95;6.18;;;;;;;22.16;53.50;101857.81;4999387;28;20129;-73
2021/07/10 05:23:21;;;;;;;8.77;6.90;;;;;;;22.14;53.45;101854.31;5017063;28;20063;-73
2021/07/10 05:25:47;;;;;;;7.35;6.65;;;;;;;22.14;53.43;101851.66;4999463;28;20026;-73
2021/07/10 05:28:12;;;;;;;6.88;5.63;;;;;;;22.16;53.67;101855.19;4999466;28;20022;-73
2021/07/10 05:30:38;;;;;;;6.53;5.78;;;;;;;22.17;53.50;101859.56;5016733;28;20057;-73
2021/07/10 05:33:03;;;;;;;6.53;5.82;;;;;;;22.18;53.63;101852.53;5016977;28;20057;-74
2021/07/10 05:35:29;;;;;;;7.57;5.63;;;;;;;22.18;53.23;101856.06;4983126;28;20447;-73
2021/07/10 05:37:55;;;;;;;7.47;6.78;;;;;;;22.18;53.34;101856.06;5016822;28;20026;-73
2021/07/10 05:40:21;;;;;;;6.65;6.00;;;;;;;22.18;53.38;101855.16;5016889;28;20052;-73
2021/07/10 05:42:48;;;;;;;8.35;6.32;;;;;;;22.19;53.47;101856.94;5016653;28;20057;-73
2021/07/10 05:45:15;;;;;;;7.20;6.47;;;;;;;22.17;53.46;101853.41;4998836;28;20025;-73
2021/07/10 05:47:41;;;;;;;7.15;5.78;;;;;;;22.19;53.48;101859.56;5016576;28;20018;-73
2021/07/10 05:50:07;;;;;;;7.15;6.30;;;;;;;22.21;53.39;101860.41;5016457;28;20041;-73
2021/07/10 05:52:32;;;;;;;7.32;5.50;;;;;;;22.19;53.24;101851.66;5016503;28;20037;-73
2021/07/10 05:54:57;;;;;;;5.10;4.60;;;;;;;22.21;53.35;101853.38;5016335;28;20358;-73
2021/07/10 05:57:23;;;;;;;7.40;6.13;;;;;;;22.19;53.47;101849.03;5016356;28;20500;-73
2021/07/10 05:59:48;;;;;;;8.02;5.90;;;;;;;22.22;53.52;101848.97;5016292;28;20476;-70
2021/07/10 06:02:13;;;;;;;7.78;5.25;;;;;;;22.20;53.41;101845.50;4999056;28;20480;-70
2021/07/10 06:04:39;;;;;;;6.60;5.93;;;;;;;22.23;53.51;101848.97;5016288;28;20499;-70
2021/07/10 06:07:06;;;;;;;8.32;6.57;;;;;;;22.23;53.67;101845.47;4998619;28;20034;-70
2021/07/10 06:09:33;;;;;;;9.55;6.07;;;;;;;22.23;53.74;101840.19;5016225;28;20029;-70
2021/07/10 06:11:58;;;;;;;17.35;15.55;;;;;;;21.96;52.55;101844.66;4982326;28;20121;-70
2021/07/10 06:14:24;;;;;;;18.17;16.23;;;;;;;21.72;52.94;101843.00;4982545;28;20065;-71
2021/07/10 06:16:49;;;;;;;20.77;17.52;;;;;;;21.66;52.89;101844.78;5015974;28;20038;-72
2021/07/10 06:19:14;;;;;;;21.80;19.33;;;;;;;21.63;52.99;101853.56;4998437;28;20050;-69
2021/07/10 06:21:40;;;;;;;24.15;20.50;;;;;;;21.56;53.04;101859.69;4998433;28;20038;-70
2021/07/10 06:24:05;;;;;;;22.30;19.00;;;;;;;21.59;53.05;101853.53;4998713;28;20083;-69
2021/07/10 06:26:31;;;;;;;31.58;22.38;;;;;;;21.44;53.25;101858.81;5017126;28;20030;-73
2021/07/10 06:28:56;;;;;;;;;;;;;;;21.47;53.46;101851.81;4998619;28;20107;-69
2021/07/10 06:31:21;;;;;;;23.23;20.33;;;;;;;21.44;53.60;101856.19;4998390;28;20372;-70
2021/07/10 06:33:47;;;;;;;24.97;21.63;;;;;;;21.41;53.54;101846.56;4982489;28;20273;-70
2021/07/10 06:36:14;;;;;;;26.60;22.13;;;;;;;21.33;53.52;101848.31;4997954;28;20034;-70
2021/07/10 06:38:39;;;;;;;25.60;21.40;;;;;;;21.43;53.63;101857.94;4998448;28;20101;-69
2021/07/10 06:41:04;;;;;;;22.38;19.27;;;;;;;21.46;53.31;101846.56;5015727;28;20062;-69
2021/07/10 06:43:30;;;;;;;24.80;20.17;;;;;;;21.46;53.46;101841.28;4998380;28;20037;-69
2021/07/10 06:45:56;;;;;;;27.60;21.60;;;;;;;21.44;53.27;101837.78;5015541;28;20100;-69
2021/07/10 06:48:22;;;;;;;25.90;20.30;;;;;;;21.46;53.11;101852.69;5015518;28;20026;-70
2021/07/10 06:50:48;;;;;;;24.17;20.80;;;;;;;21.43;53.32;101847.41;5015387;28;20545;-69
2021/07/10 06:53:13;;;;;;;29.25;22.48;;;;;;;21.31;53.48;101855.34;5015621;28;20041;-69
2021/07/10 06:55:39;;;;;;;27.33;21.88;;;;;;;21.34;53.46;101864.09;4981862;28;20049;-69
2021/07/10 06:58:04;;;;;;;26.65;22.45;;;;;;;21.39;53.50;101856.22;4998074;28;20077;-69
2021/07/10 07:00:30;;;;;;;29.58;22.77;;;;;;;21.38;53.60;101863.25;4998159;28;20543;-70
2021/07/10 07:02:55;;;;;;;25.23;20.25;;;;;;;21.38;53.69;101862.38;5015772;28;20085;-69
2021/07/10 07:05:21;;;;;;;28.98;22.38;;;;;;;21.36;53.60;101858.84;5015449;28;20103;-70
2021/07/10 07:07:46;;;;;;;29.23;22.13;;;;;;;21.41;53.74;101851.84;4998488;28;20025;-70
2021/07/10 07:10:13;;;;;;;26.85;21.48;;;;;;;21.48;53.44;101850.06;5015811;28;20049;-69
2021/07/10 07:12:39;;;;;;;28.05;22.95;;;;;;;21.36;54.04;101853.59;4981500;28;20034;-70
2021/07/10 07:15:07;;;;;;;28.05;23.02;;;;;;;21.41;54.08;101865.00;5015504;28;20038;-70
2021/07/10 07:17:33;;;;;;;27.75;23.33;;;;;;;21.28;54.08;101858.00;5015534;28;20021;-69
2021/07/10 07:19:58;;;;;;;28.00;23.38;;;;;;;21.27;54.45;101857.13;5015439;28;20116;-70
2021/07/10 07:22:23;;;;;;;26.02;21.33;;;;;;;21.33;54.00;101845.69;5015378;28;20033;-69
2021/07/10 07:24:49;;;;;;;29.65;24.13;;;;;;;21.39;54.21;101846.56;4965507;28;20044;-69
2021/07/10 07:27:14;;;;;;;28.58;23.67;;;;;;;21.44;53.98;101850.94;5015416;28;20468;-70
2021/07/10 07:29:40;;;;;;;23.95;19.98;;;;;;;21.52;53.63;101851.81;5002277;28;20052;-68
2021/07/10 07:32:05;;;;;;;24.00;21.20;;;;;;;21.38;53.72;101849.19;5022022;28;20534;-67
2021/07/10 07:34:31;;;;;;;27.00;21.02;;;;;;;21.49;53.57;101842.16;4997950;28;20033;-68
2021/07/10 07:36:56;;;;;;;23.45;19.42;;;;;;;21.58;53.37;101842.13;5015327;28;20034;-68
2021/07/10 07:39:22;;;;;;;26.05;20.38;;;;;;;21.60;53.06;101847.41;5015072;28;20040;-69
2021/07/10 07:41:49;;;;;;;25.45;19.67;;;;;;;21.51;53.13;101844.81;4980815;28;20046;-68
2021/07/10 07:44:15;;;;;;;22.10;18.65;;;;;;;21.56;52.97;101841.25;5014937;28;20026;-68
2021/07/10 07:46:40;;;;;;;24.13;19.55;;;;;;;21.56;53.05;101848.28;5016074;28;20056;-74
2021/07/10 07:49:06;;;;;;;24.00;21.05;;;;;;;21.54;53.12;101845.69;4998841;28;20030;-74
2021/07/10 07:51:32;;;;;;;29.50;20.83;;;;;;;21.44;53.28;101838.66;4998120;28;20061;-74
2021/07/10 07:53:57;;;;;;;25.13;19.30;;;;;;;21.40;53.52;101834.28;5015449;28;20034;-74
2021/07/10 07:56:24;;;;;;;27.17;20.50;;;;;;;21.40;53.78;101844.81;5016294;28;20034;-74
2021/07/10 07:58:50;;;;;;;24.65;21.50;;;;;;;21.40;53.67;101839.56;4997685;28;20032;-74
2021/07/10 08:01:15;;;;;;;24.33;19.92;;;;;;;21.34;53.65;101837.78;5014744;28;20030;-74
2021/07/10 08:03:41;;;;;;;25.25;20.15;;;;;;;21.28;53.92;101829.94;5014909;28;20080;-74
2021/07/10 08:06:07;;;;;;;23.77;19.23;;;;;;;21.31;53.99;101827.25;4997545;28;20119;-74
2021/07/10 08:08:36;;;;;;;23.25;20.50;;;;;;;21.53;53.38;101825.50;5015303;28;20087;-73
2021/07/10 08:11:05;;;;;;;25.50;17.38;;;;;;;21.69;53.54;101821.94;5015031;28;20045;-74
2021/07/10 08:13:32;;;;;;;20.38;16.08;;;;;;;21.80;52.33;101823.69;5014485;28;20022;-73
2021/07/10 08:16:01;;;;;;;21.77;17.23;;;;;;;21.84;52.12;101812.22;4980049;28;20037;-73
2021/07/10 08:18:27;;;;;;;16.50;14.77;;;;;;;21.71;52.39;101814.03;4996496;28;20097;-74
2021/07/10 08:20:53;;;;;;;18.05;14.93;;;;;;;21.86;52.26;101811.34;5014181;28;20500;-73
2021/07/10 08:23:18;;;;;;;15.80;12.88;;;;;;;21.98;51.87;101806.03;4997178;28;20084;-74
2021/07/10 08:25:45;;;;;;;15.40;13.80;;;;;;;22.05;51.67;101809.56;5016055;28;20053;-74
2021/07/10 08:28:10;;;;;;;16.33;13.77;;;;;;;22.11;51.61;101809.53;4981594;28;20032;-75
2021/07/10 08:30:36;;;;;;;16.05;13.32;;;;;;;22.12;51.48;101807.75;4997582;28;20037;-74
2021/07/10 08:33:01;;;;;;;15.77;13.52;;;;;;;22.00;51.71;101792.91;5015262;28;20033;-73
2021/07/10 08:35:26;;;;;;;17.38;14.60;;;;;;;21.90;52.41;101806.97;4997116;28;20026;-73
2021/07/10 08:37:52;;;;;;;18.15;13.27;;;;;;;21.91;51.76;101801.69;5015254;28;20076;-73
2021/07/10 08:40:20;;;;;;;16.27;12.75;;;;;;;21.95;51.40;101800.78;5014499;28;20071;-73
2021/07/10 08:42:46;;;;;;;16.95;13.48;;;;;;;21.94;51.91;101796.38;5014490;28;20030;-73
2021/07/10 08:45:13;;;;;;;15.70;11.50;;;;;;;21.95;51.45;101805.16;5014433;28;20498;-73
2021/07/10 08:47:41;;;;;;;13.95;11.70;;;;;;;21.98;51.78;101803.41;4980390;28;20033;-74
2021/07/10 08:50:20;;;;;;;13.18;11.80;;;;;;;22.08;51.65;101801.63;5014036;28;20026;-74
2021/07/10 08:52:47;;;;;;;14.05;12.55;;;;;;;22.11;51.67;101801.63;4997359;28;20500;-74
2021/07/10 08:55:14;;;;;;;17.88;11.93;;;;;;;22.14;51.68;101796.34;5000517;28;20533;-74
2021/07/10 08:57:39;;;;;;;18.23;13.02;;;;;;;22.12;51.66;101791.97;5018741;28;20076;-74
2021/07/10 09:00:14;;;;;;;13.43;11.75;;;;;;;22.09;51.79;101793.72;5017737;28;20030;-69
2021/07/10 09:02:43;;;;;;;19.13;13.38;;;;;;;21.98;51.80;101784.09;5017402;28;20033;-69
2021/07/10 09:05:09;;;;;;;14.82;11.80;;;;;;;22.02;51.87;101791.13;5017743;28;20031;-68
2021/07/10 09:08:13;;;;;;;14.50;10.57;;;;;;;22.03;52.01;101791.13;4999744;28;20038;-69
2021/07/10 09:10:40;;;;;;;17.92;14.35;;;;;;;21.98;51.80;101784.97;4999830;28;20476;-69
2021/07/10 09:13:06;;;;;;;14.40;12.27;;;;;;;21.92;51.97;101792.03;5017316;28;20032;-69
2021/07/10 09:15:32;;;;;;;20.70;15.10;;;;;;;21.79;51.65;101779.78;5017462;28;20116;-69
2021/07/10 09:17:58;;;;;;;25.92;16.60;;;;;;;21.76;52.15;101783.31;4999499;28;20033;-69
2021/07/10 09:20:26;;;;;;;19.95;14.75;;;;;;;21.83;52.20;101776.25;4999969;28;20074;-69
2021/07/10 09:22:52;;;;;;;17.60;13.95;;;;;;;21.88;52.00;101785.88;5017436;28;20033;-69
2021/07/10 09:25:26;;;;;;;20.63;13.00;;;;;;;21.88;52.04;101788.53;5017574;28;20034;-70
2021/07/10 09:27:54;;;;;;;16.08;12.32;;;;;;;21.90;52.02;101785.88;5017259;28;20032;-69
2021/07/10 09:30:38;;;;;;;15.95;13.52;;;;;;;21.92;52.10;101778.88;5017493;28;20026;-70
2021/07/10 09:33:16;;;;;;;16.83;13.68;;;;;;;21.90;52.37;101778.00;5017923;28;20030;-71
2021/07/10 09:35:59;;;;;;;17.42;15.30;;;;;;;21.95;52.52;101778.81;5017118;28;20037;-70
2021/07/10 09:38:33;;;;;;;19.35;15.25;;;;;;;21.95;52.28;101774.44;4999872;28;20053;-72
2021/07/10 09:41:07;;;;;;;21.85;16.25;;;;;;;21.88;52.57;101777.13;4999258;28;20488;-69
2021/07/10 09:43:37;;;;;;;17.65;14.55;;;;;;;21.89;52.35;101777.13;5016972;28;20036;-69
2021/07/10 09:46:06;;;;;;;23.08;15.38;;;;;;;22.00;52.51;101771.81;4998873;28;20022;-68
2021/07/10 09:48:34;;;;;;;20.25;14.02;;;;;;;22.04;52.37;101760.41;5016713;28;20026;-69
2021/07/10 09:51:18;;;;;;;19.23;15.45;;;;;;;22.17;52.28;101755.94;5016886;28;20030;-69
2021/07/10 09:53:57;;;;;;;21.52;14.75;;;;;;;22.22;51.82;101756.78;4999002;28;20018;-70
2021/07/10 09:56:22;;;;;;;19.55;16.92;;;;;;;22.20;51.98;101740.97;4998831;28;20087;-69
2021/07/10 09:58:48;;;;;;;17.33;15.48;;;;;;;22.28;51.90;101751.47;4998645;28;20038;-69
2021/07/10 10:01:33;;;;;;;17.52;12.82;;;;;;;22.32;51.91;101756.72;4998652;28;20582;-68
2021/07/10 10:04:18;;;;;;;15.15;12.43;;;;;;;22.35;52.10;101755.81;5016262;28;20075;-69
2021/07/10 10:06:44;;;;;;;16.15;12.38;;;;;;;22.25;51.97;101752.38;4998116;28;20028;-69
2021/07/10 10:09:20;;;;;;;16.38;11.48;;;;;;;22.27;52.00;101760.25;5016067;28;20384;-69
2021/07/10 10:12:11;;;;;;;15.25;11.50;;;;;;;22.28;52.09;101760.25;5016176;28;20029;-69
2021/07/10 10:14:47;;;;;;;12.75;11.07;;;;;;;22.28;51.78;101751.47;4998565;28;20026;-71
2021/07/10 10:17:15;;;;;;;16.95;12.52;;;;;;;22.22;52.04;101755.00;5015935;28;20057;-71
2021/07/10 10:19:42;;;;;;;15.32;12.95;;;;;;;22.25;52.15;101748.84;5015967;28;20062;-69
2021/07/10 10:22:09;;;;;;;17.27;12.52;;;;;;;22.27;52.07;101750.59;4998565;28;20066;-69
2021/07/10 10:24:36;;;;;;;14.40;11.00;;;;;;;22.34;51.91;101748.78;5016045;28;20042;-69
2021/07/10 10:27:02;;;;;;;12.90;10.60;;;;;;;22.34;51.97;101743.50;5016560;28;20061;-69
2021/07/10 10:29:29;;;;;;;15.02;11.00;;;;;;;22.40;51.48;101743.47;5015867;28;20057;-73
2021/07/10 10:31:56;;;;;;;13.40;10.35;;;;;;;22.48;51.51;101739.03;5016126;28;20026;-69
2021/07/10 10:34:23;;;;;;;12.43;10.82;;;;;;;22.57;51.33;101738.09;5015835;28;20792;-69
2021/07/10 10:36:50;;;;;;;12.35;10.55;;;;;;;22.59;51.23;101737.19;5015696;28;20073;-74
2021/07/10 10:39:22;;;;;;;14.50;10.38;;;;;;;22.46;50.87;101725.84;5016065;28;20030;-74
2021/07/10 10:41:50;;;;;;;16.52;12.25;;;;;;;22.37;50.90;101725.94;4998925;28;20022;-74
2021/07/10 10:44:17;;;;;;;15.68;12.30;;;;;;;22.31;50.58;101728.63;5015995;28;20071;-74
2021/07/10 10:46:55;;;;;;;17.40;12.13;;;;;;;22.24;51.00;101733.94;5016030;28;20106;-74
2021/07/10 10:49:35;;;;;;;12.77;10.00;;;;;;;22.26;50.96;101732.16;5016400;28;20025;-74
2021/07/10 10:52:27;;;;;;;14.07;10.52;;;;;;;22.24;50.70;101726.03;4999309;28;20112;-75
2021/07/10 10:55:42;;;;;;;17.15;13.13;;;;;;;22.16;50.68;101726.09;4999147;28;20468;-74
2021/07/10 10:58:10;;;;;;;;;;;;;;;22.10;50.38;101732.25;4992976;28;20391;-74
2021/07/10 11:00:40;;;;;;;15.15;11.27;;;;;;;21.96;50.99;101717.38;4998805;28;19910;-74
2021/07/10 11:03:11;;;;;;;12.65;10.65;;;;;;;22.07;50.73;101724.34;5000816;28;20034;-75
2021/07/10 11:05:45;;;;;;;12.68;10.57;;;;;;;22.18;50.49;101716.41;5007905;28;20022;-75
2021/07/10 11:08:26;;;;;;;14.15;11.27;;;;;;;22.23;50.47;101716.38;5022245;28;20037;-74
2021/07/10 11:10:57;;;;;;;13.40;11.25;;;;;;;22.25;50.57;101715.47;5019050;28;20411;-75
2021/07/10 11:13:30;;;;;;;11.23;9.88;;;;;;;22.31;50.54;101711.94;5018072;28;20026;-75
2021/07/10 11:16:12;;;;;;;13.50;10.25;;;;;;;22.29;50.63;101718.97;5016949;28;20021;-72
2021/07/10 11:18:59;;;;;;;10.88;8.60;;;;;;;22.32;50.72;101714.56;4998791;28;20065;-75
2021/07/10 11:22:06;;;;;;;16.10;9.93;;;;;;;22.38;50.44;101716.25;5016518;28;20033;-74